createdAt,value
2018-09-29T00:02:22.206Z,5.75
2018-09-29T00:04:50.393Z,6.90
2018-09-29T00:07:18.448Z,9.78
2018-09-29T00:09:46.562Z,5.62
2018-09-29T00:12:14.712Z,7.03
2018-09-29T00:14:42.920Z,12.68
2018-09-29T00:17:11.016Z,5.60
2018-09-29T00:19:39.112Z,8.85
2018-09-29T00:22:07.354Z,6.60
2018-09-29T00:24:35.468Z,6.80
2018-09-29T00:27:03.573Z,7.25
2018-09-29T00:29:31.735Z,10.15
2018-09-29T00:31:59.833Z,7.30
2018-09-29T00:34:27.937Z,4.42
2018-09-29T00:36:56.023Z,8.10
2018-09-29T00:39:24.137Z,15.90
2018-09-29T00:41:52.253Z,9.60
2018-09-29T00:44:20.344Z,8.80
2018-09-29T00:46:48.436Z,10.18
2018-09-29T00:49:16.558Z,6.83
2018-09-29T00:51:44.674Z,6.92
2018-09-29T00:54:12.796Z,5.90
2018-09-29T00:56:40.933Z,7.60
2018-09-29T00:59:09.032Z,7.78
2018-09-29T01:01:37.137Z,10.05
2018-09-29T01:04:05.254Z,7.17
2018-09-29T01:06:33.344Z,5.95
2018-09-29T01:09:01.485Z,14.65
2018-09-29T01:11:29.579Z,7.30
2018-09-29T01:13:57.667Z,8.35
2018-09-29T01:16:25.776Z,8.50
2018-09-29T01:18:53.872Z,6.40
2018-09-29T01:21:21.964Z,9.05
2018-09-29T01:23:50.060Z,9.60
2018-09-29T01:26:18.177Z,12.13
2018-09-29T01:28:46.330Z,6.72
2018-09-29T01:31:14.436Z,10.28
2018-09-29T01:33:42.538Z,8.70
2018-09-29T01:36:10.628Z,9.43
2018-09-29T01:38:38.719Z,2.33
2018-09-29T01:41:06.828Z,5.30
2018-09-29T01:43:34.924Z,2.70
2018-09-29T01:46:03.075Z,8.53
2018-09-29T01:48:31.170Z,6.08
2018-09-29T01:50:59.275Z,14.15
2018-09-29T01:53:27.363Z,8.03
2018-09-29T01:55:55.529Z,8.55
2018-09-29T01:58:23.627Z,7.22
2018-09-29T02:00:51.738Z,12.07
2018-09-29T02:03:19.857Z,6.75
2018-09-29T02:05:47.966Z,5.83
2018-09-29T02:08:16.063Z,7.00
2018-09-29T02:10:44.152Z,5.75
2018-09-29T02:13:12.269Z,9.30
2018-09-29T02:15:40.340Z,8.03
2018-09-29T02:18:08.435Z,7.35
2018-09-29T02:20:36.511Z,6.17
2018-09-29T02:23:04.613Z,10.20
2018-09-29T02:25:32.697Z,4.83
2018-09-29T02:28:00.785Z,7.60
2018-09-29T02:30:28.884Z,6.78
2018-09-29T02:32:56.979Z,8.43
2018-09-29T02:35:25.067Z,5.92
2018-09-29T02:37:53.334Z,9.30
2018-09-29T02:40:21.417Z,11.10
2018-09-29T02:42:49.509Z,7.80
2018-09-29T02:45:17.592Z,3.77
2018-09-29T02:47:45.676Z,13.93
2018-09-29T02:50:13.755Z,3.95
2018-09-29T02:52:41.836Z,5.40
2018-09-29T02:55:09.937Z,11.35
2018-09-29T02:57:38.009Z,3.37
2018-09-29T03:00:06.110Z,5.75
2018-09-29T03:02:34.188Z,8.88
2018-09-29T03:05:02.282Z,5.33
2018-09-29T03:07:30.360Z,7.30
2018-09-29T03:09:58.469Z,8.03
2018-09-29T03:12:26.565Z,5.87
2018-09-29T03:14:55.029Z,6.33
2018-09-29T03:17:23.115Z,9.05
2018-09-29T03:19:51.205Z,7.47
2018-09-29T03:22:19.306Z,5.33
2018-09-29T03:24:47.400Z,7.03
2018-09-29T03:27:15.495Z,4.10
2018-09-29T03:29:43.601Z,5.78
2018-09-29T03:32:11.688Z,19.60
2018-09-29T03:34:39.772Z,6.42
2018-09-29T03:37:07.885Z,7.22
2018-09-29T03:39:35.967Z,8.83
2018-09-29T03:42:04.073Z,9.33
2018-09-29T03:44:32.173Z,2.98
2018-09-29T03:47:00.282Z,5.53
2018-09-29T03:49:28.380Z,5.92
2018-09-29T03:51:56.477Z,7.03
2018-09-29T03:54:24.590Z,5.85
2018-09-29T03:56:52.711Z,4.28
2018-09-29T03:59:20.799Z,5.00
2018-09-29T04:01:48.891Z,9.08
2018-09-29T04:04:17.002Z,6.42
2018-09-29T04:06:45.105Z,6.40
2018-09-29T04:09:13.189Z,3.83
2018-09-29T04:11:41.413Z,5.33
2018-09-29T04:14:09.868Z,3.83
2018-09-29T04:16:37.976Z,6.42
2018-09-29T04:19:06.193Z,6.42
2018-09-29T04:21:38.603Z,6.97
2018-09-29T04:24:06.821Z,8.45
2018-09-29T04:26:35.180Z,5.45
2018-09-29T04:29:03.362Z,9.08
2018-09-29T04:31:31.573Z,4.62
2018-09-29T04:33:59.817Z,6.70
2018-09-29T04:36:28.057Z,4.92
2018-09-29T04:38:56.516Z,4.85
2018-09-29T04:41:24.916Z,3.95
2018-09-29T04:43:53.232Z,7.12
2018-09-29T04:46:21.568Z,6.75
2018-09-29T04:48:49.862Z,10.38
2018-09-29T04:51:18.202Z,10.82
2018-09-29T04:53:46.434Z,11.30
2018-09-29T04:56:14.852Z,8.35
2018-09-29T04:58:43.119Z,6.65
2018-09-29T05:01:11.203Z,6.25
2018-09-29T05:03:39.301Z,8.95
2018-09-29T05:06:07.604Z,5.67
2018-09-29T05:08:35.740Z,12.33
2018-09-29T05:11:03.834Z,7.65
2018-09-29T05:13:31.920Z,7.95
2018-09-29T05:15:59.995Z,11.38
2018-09-29T05:21:07.103Z,10.98
2018-09-29T05:23:35.195Z,9.40
2018-09-29T05:26:03.296Z,10.60
2018-09-29T05:28:31.384Z,11.90
2018-09-29T05:30:59.578Z,13.58
2018-09-29T05:33:27.590Z,13.18
2018-09-29T05:35:55.689Z,12.35
2018-09-29T05:38:23.811Z,12.30
2018-09-29T05:40:51.879Z,11.25
2018-09-29T05:43:20.168Z,12.37
2018-09-29T05:45:48.262Z,10.80
2018-09-29T05:48:16.414Z,13.10
2018-09-29T05:50:44.503Z,11.03
2018-09-29T05:53:12.594Z,16.32
2018-09-29T05:55:40.713Z,12.43
2018-09-29T05:58:08.800Z,15.48
2018-09-29T06:00:36.941Z,17.65
2018-09-29T06:03:05.041Z,17.37
2018-09-29T06:05:33.213Z,18.25
2018-09-29T06:08:01.245Z,12.70
2018-09-29T06:10:29.338Z,14.45
2018-09-29T06:12:57.562Z,11.97
2018-09-29T06:15:32.585Z,15.70
2018-09-29T06:18:00.702Z,15.98
2018-09-29T06:20:28.817Z,11.83
2018-09-29T06:22:56.933Z,20.32
2018-09-29T06:25:25.032Z,16.93
2018-09-29T06:27:53.166Z,18.70
2018-09-29T06:30:21.257Z,15.55
2018-09-29T06:32:49.379Z,14.83
2018-09-29T06:35:17.502Z,14.55
2018-09-29T06:37:45.625Z,14.85
2018-09-29T06:40:13.716Z,22.32
2018-09-29T06:42:41.846Z,19.25
2018-09-29T06:45:09.958Z,12.88
2018-09-29T06:47:38.124Z,10.18
2018-09-29T06:50:06.226Z,12.95
2018-09-29T06:52:34.331Z,12.85
2018-09-29T06:55:02.439Z,11.70
2018-09-29T06:57:30.549Z,16.30
2018-09-29T06:59:58.644Z,11.85
2018-09-29T07:02:26.774Z,19.15
2018-09-29T07:04:54.888Z,15.15
2018-09-29T07:07:23.031Z,10.68
2018-09-29T07:09:51.144Z,12.18
2018-09-29T07:12:19.261Z,18.27
2018-09-29T07:14:47.350Z,10.63
2018-09-29T07:17:15.435Z,8.95
2018-09-29T07:19:43.545Z,10.80
2018-09-29T07:22:11.645Z,14.00
2018-09-29T07:24:39.744Z,16.95
2018-09-29T07:27:07.837Z,14.58
2018-09-29T07:29:35.943Z,13.32
2018-09-29T07:32:04.042Z,12.07
2018-09-29T07:34:32.128Z,7.62
2018-09-29T07:37:00.215Z,10.90
2018-09-29T07:39:28.312Z,11.03
2018-09-29T07:41:56.422Z,14.68
2018-09-29T07:44:24.535Z,15.23
2018-09-29T07:46:52.637Z,10.55
2018-09-29T07:49:20.800Z,9.33
2018-09-29T07:51:48.829Z,10.00
2018-09-29T07:54:16.940Z,13.45
2018-09-29T07:56:45.033Z,6.33
2018-09-29T07:59:13.131Z,8.88
2018-09-29T08:01:41.232Z,11.40
2018-09-29T08:04:09.328Z,5.55
2018-09-29T08:06:37.430Z,14.00
2018-09-29T08:09:06.164Z,8.53
2018-09-29T08:11:35.332Z,13.97
2018-09-29T08:14:03.484Z,7.23
2018-09-29T08:16:31.584Z,7.10
2018-09-29T08:18:59.696Z,7.67
2018-09-29T08:21:27.804Z,5.70
2018-09-29T08:23:55.912Z,5.57
2018-09-29T08:26:24.035Z,7.30
2018-09-29T08:28:52.109Z,3.30
2018-09-29T08:31:20.197Z,8.23
2018-09-29T08:33:48.296Z,8.70
2018-09-29T08:36:16.402Z,5.50
2018-09-29T08:38:44.505Z,9.53
2018-09-29T08:41:12.626Z,12.90
2018-09-29T08:43:40.773Z,4.60
2018-09-29T08:46:08.908Z,7.37
2018-09-29T08:48:37.014Z,7.20
2018-09-29T08:51:05.134Z,7.57
2018-09-29T08:53:33.259Z,6.77
2018-09-29T08:56:01.326Z,7.40
2018-09-29T08:58:29.445Z,6.10
2018-09-29T09:00:57.544Z,4.63
2018-09-29T09:03:25.641Z,5.30
2018-09-29T09:05:53.770Z,8.90
2018-09-29T09:08:21.907Z,5.83
2018-09-29T09:10:50.052Z,8.53
2018-09-29T09:13:18.166Z,4.50
2018-09-29T09:15:46.256Z,5.57
2018-09-29T09:18:14.361Z,4.47
2018-09-29T09:20:42.461Z,6.73
2018-09-29T09:23:10.593Z,8.40
2018-09-29T09:25:38.658Z,5.20
2018-09-29T09:28:06.771Z,11.33
2018-09-29T09:30:34.900Z,3.23
2018-09-29T09:33:03.161Z,3.97
2018-09-29T09:35:31.287Z,5.50
2018-09-29T09:37:59.379Z,7.27
2018-09-29T09:40:27.485Z,6.63
2018-09-29T09:42:55.578Z,5.00
2018-09-29T09:45:23.712Z,4.67
2018-09-29T09:47:51.925Z,3.40
2018-09-29T09:50:21.073Z,3.80
2018-09-29T09:52:49.182Z,2.83
2018-09-29T09:55:17.289Z,2.30
2018-09-29T09:57:45.414Z,3.77
2018-09-29T10:00:13.533Z,5.27
2018-09-29T10:02:47.262Z,5.40
2018-09-29T10:05:15.382Z,6.17
2018-09-29T10:07:43.472Z,3.60
2018-09-29T10:10:11.614Z,3.03
2018-09-29T10:12:39.729Z,5.90
2018-09-29T10:15:07.938Z,4.60
2018-09-29T10:17:36.103Z,5.03
2018-09-29T10:20:04.873Z,2.53
2018-09-29T10:22:32.964Z,10.97
2018-09-29T10:25:01.098Z,5.90
2018-09-29T10:27:29.237Z,2.10
2018-09-29T10:29:57.405Z,4.93
2018-09-29T10:32:25.500Z,3.90
2018-09-29T10:34:53.692Z,5.27
2018-09-29T10:37:21.797Z,3.30
2018-09-29T10:39:49.983Z,10.20
2018-09-29T10:42:18.083Z,6.03
2018-09-29T10:44:46.193Z,7.27
2018-09-29T10:47:14.617Z,3.37
2018-09-29T10:49:42.780Z,5.57
2018-09-29T10:52:10.947Z,1.70
2018-09-29T10:54:39.115Z,3.47
2018-09-29T10:57:07.233Z,4.10
2018-09-29T10:59:35.374Z,3.57
2018-09-29T11:02:03.489Z,4.40
2018-09-29T11:04:31.588Z,2.63
2018-09-29T11:06:59.748Z,2.60
2018-09-29T11:09:27.868Z,5.87
2018-09-29T11:11:56.189Z,4.40
2018-09-29T11:14:24.349Z,2.90
2018-09-29T11:16:52.434Z,4.87
2018-09-29T11:19:20.658Z,6.30
2018-09-29T11:21:48.987Z,4.73
2018-09-29T11:24:17.200Z,3.43
2018-09-29T11:26:45.318Z,2.00
2018-09-29T11:29:13.459Z,2.87
2018-09-29T11:31:41.564Z,4.70
2018-09-29T11:34:09.664Z,3.23
2018-09-29T11:36:37.772Z,3.20
2018-09-29T11:39:08.440Z,2.63
2018-09-29T11:41:36.746Z,2.37
2018-09-29T11:44:04.836Z,2.43
2018-09-29T11:46:33.174Z,4.63
2018-09-29T11:49:01.348Z,3.10
2018-09-29T11:51:29.637Z,4.93
2018-09-29T11:53:58.107Z,3.43
2018-09-29T11:56:26.498Z,5.53
2018-09-29T11:58:54.867Z,2.50
2018-09-29T12:01:22.981Z,4.00
2018-09-29T12:03:51.142Z,2.70
2018-09-29T12:06:19.335Z,2.00
2018-09-29T12:08:47.404Z,4.03
2018-09-29T12:11:15.551Z,3.90
2018-09-29T12:13:43.780Z,2.27
2018-09-29T12:16:11.897Z,3.03
2018-09-29T12:18:40.012Z,3.87
2018-09-29T12:21:08.200Z,1.00
2018-09-29T12:23:36.257Z,2.40
2018-09-29T12:26:04.385Z,2.87
2018-09-29T12:28:32.492Z,4.80
2018-09-29T12:31:00.611Z,4.40
2018-09-29T12:33:28.716Z,3.90
2018-09-29T12:35:56.838Z,2.93
2018-09-29T12:38:24.950Z,4.90
2018-09-29T12:40:53.074Z,2.20
2018-09-29T12:43:21.273Z,2.23
2018-09-29T12:45:49.379Z,4.50
2018-09-29T12:48:17.501Z,5.07
2018-09-29T12:50:45.628Z,2.00
2018-09-29T12:53:13.731Z,1.63
2018-09-29T12:55:41.853Z,1.57
2018-09-29T12:58:09.972Z,2.70
2018-09-29T13:00:38.082Z,1.93
2018-09-29T13:03:06.201Z,2.73
2018-09-29T13:05:34.300Z,4.03
2018-09-29T13:08:02.415Z,2.60
2018-09-29T13:10:30.526Z,2.50
2018-09-29T13:12:58.635Z,6.27
2018-09-29T13:15:26.774Z,4.40
2018-09-29T13:17:54.908Z,3.87
2018-09-29T13:20:22.988Z,2.10
2018-09-29T13:22:51.193Z,1.53
2018-09-29T13:25:19.220Z,2.53
2018-09-29T13:27:47.349Z,3.50
2018-09-29T13:30:15.444Z,3.10
2018-09-29T13:32:43.578Z,2.33
2018-09-29T13:35:11.676Z,2.40
2018-09-29T13:37:39.810Z,5.60
2018-09-29T13:40:07.966Z,2.13
2018-09-29T13:42:36.128Z,2.67
2018-09-29T13:45:04.472Z,1.70
2018-09-29T13:47:32.581Z,3.10
2018-09-29T13:50:00.692Z,6.33
2018-09-29T13:52:28.820Z,2.83
2018-09-29T13:54:56.916Z,1.53
2018-09-29T13:57:25.029Z,3.07
2018-09-29T13:59:53.125Z,1.87
2018-09-29T14:02:21.247Z,2.93
2018-09-29T14:04:55.982Z,2.10
2018-09-29T14:07:24.104Z,2.67
2018-09-29T14:09:52.408Z,3.00
2018-09-29T14:12:20.525Z,5.97
2018-09-29T14:14:55.229Z,2.00
2018-09-29T14:17:23.342Z,2.30
2018-09-29T14:19:51.491Z,4.17
2018-09-29T14:22:19.577Z,2.17
2018-09-29T14:24:47.668Z,3.53
2018-09-29T14:27:15.775Z,3.80
2018-09-29T14:29:43.895Z,2.10
2018-09-29T14:32:12.017Z,1.93
2018-09-29T14:34:40.121Z,4.23
2018-09-29T14:37:08.298Z,4.20
2018-09-29T14:39:36.313Z,1.50
2018-09-29T14:42:04.425Z,3.57
2018-09-29T14:44:32.529Z,6.20
2018-09-29T14:47:00.628Z,6.30
2018-09-29T14:49:28.741Z,1.17
2018-09-29T14:51:56.831Z,2.77
2018-09-29T14:54:24.940Z,3.80
2018-09-29T14:56:53.041Z,5.93
2018-09-29T14:59:21.162Z,9.17
2018-09-29T15:01:49.495Z,6.80
2018-09-29T15:04:17.651Z,13.87
2018-09-29T15:06:45.858Z,4.20
2018-09-29T15:09:13.996Z,4.70
2018-09-29T15:11:48.453Z,2.50
2018-09-29T15:14:16.554Z,2.07
2018-09-29T15:16:44.652Z,2.83
2018-09-29T15:19:12.735Z,2.27
2018-09-29T15:21:40.830Z,2.33
2018-09-29T15:24:08.921Z,6.00
2018-09-29T15:26:37.048Z,9.13
2018-09-29T15:29:05.374Z,1.67
2018-09-29T15:31:33.628Z,1.27
2018-09-29T15:34:01.912Z,2.33
2018-09-29T15:36:30.018Z,4.60
2018-09-29T15:38:58.141Z,3.67
2018-09-29T15:41:26.247Z,4.20
2018-09-29T15:43:54.343Z,10.00
2018-09-29T15:46:22.502Z,8.23
2018-09-29T15:48:50.641Z,2.47
2018-09-29T15:51:18.674Z,3.97
2018-09-29T15:53:46.867Z,3.70
2018-09-29T15:56:14.951Z,3.57
2018-09-29T15:58:43.134Z,2.20
2018-09-29T16:01:11.239Z,3.70
2018-09-29T16:03:39.323Z,4.57
2018-09-29T16:06:07.396Z,3.33
2018-09-29T16:08:35.492Z,5.73
2018-09-29T16:11:03.765Z,5.37
2018-09-29T16:13:31.867Z,6.27
2018-09-29T16:16:00.009Z,2.60
2018-09-29T16:18:28.121Z,1.83
2018-09-29T16:20:56.230Z,3.83
2018-09-29T16:23:24.347Z,5.80
2018-09-29T16:25:52.449Z,4.03
2018-09-29T16:28:21.027Z,4.00
2018-09-29T16:30:49.312Z,2.83
2018-09-29T16:33:17.470Z,6.63
2018-09-29T16:35:45.684Z,2.70
2018-09-29T16:38:13.849Z,3.73
2018-09-29T16:40:41.900Z,2.50
2018-09-29T16:43:10.046Z,2.53
2018-09-29T16:45:38.155Z,1.63
2018-09-29T16:48:06.450Z,4.77
2018-09-29T16:50:34.587Z,3.07
2018-09-29T16:53:02.728Z,3.63
2018-09-29T16:55:30.867Z,2.80
2018-09-29T16:57:58.967Z,4.07
2018-09-29T17:00:27.202Z,2.03
2018-09-29T17:02:55.317Z,4.60
2018-09-29T17:05:23.479Z,7.57
2018-09-29T17:07:51.568Z,4.07
2018-09-29T17:10:19.696Z,4.17
2018-09-29T17:12:47.790Z,6.07
2018-09-29T17:15:15.882Z,7.30
2018-09-29T17:17:44.079Z,5.30
2018-09-29T17:20:12.175Z,2.53
2018-09-29T17:22:40.262Z,3.40
2018-09-29T17:25:08.377Z,4.30
2018-09-29T17:27:36.480Z,3.10
2018-09-29T17:30:04.633Z,6.00
2018-09-29T17:32:32.851Z,5.57
2018-09-29T17:35:00.947Z,4.50
2018-09-29T17:37:29.055Z,6.00
2018-09-29T17:39:57.155Z,3.90
2018-09-29T17:42:25.228Z,5.43
2018-09-29T17:44:53.343Z,3.53
2018-09-29T17:47:21.436Z,6.13
2018-09-29T17:49:49.532Z,5.67
2018-09-29T17:52:17.658Z,6.37
2018-09-29T17:54:45.749Z,5.37
2018-09-29T17:57:13.837Z,6.70
2018-09-29T17:59:41.952Z,5.93
2018-09-29T18:02:10.038Z,9.50
2018-09-29T18:04:38.304Z,10.43
2018-09-29T18:07:06.667Z,10.40
2018-09-29T18:09:34.770Z,10.10
2018-09-29T18:12:02.973Z,9.57
2018-09-29T18:17:05.781Z,10.20
2018-09-29T18:19:33.883Z,11.87
2018-09-29T18:22:02.096Z,11.53
2018-09-29T18:24:30.166Z,8.30
2018-09-29T18:26:58.391Z,8.83
2018-09-29T18:29:26.537Z,9.37
2018-09-29T18:31:54.628Z,9.17
2018-09-29T18:34:22.770Z,8.13
2018-09-29T18:36:50.887Z,8.17
2018-09-29T18:39:19.006Z,6.00
2018-09-29T18:41:47.209Z,9.70
2018-09-29T18:44:15.330Z,5.53
2018-09-29T18:46:43.443Z,4.07
2018-09-29T18:49:11.557Z,5.53
2018-09-29T18:51:39.731Z,3.73
2018-09-29T18:54:07.797Z,6.77
2018-09-29T18:56:35.900Z,6.07
2018-09-29T18:59:04.036Z,3.37
2018-09-29T19:01:32.666Z,3.50
2018-09-29T19:04:00.779Z,2.70
2018-09-29T19:06:28.935Z,6.00
2018-09-29T19:08:57.038Z,6.80
2018-09-29T19:11:25.183Z,9.00
2018-09-29T19:13:53.416Z,7.73
2018-09-29T19:16:21.523Z,9.10
2018-09-29T19:18:49.689Z,7.13
2018-09-29T19:21:17.837Z,8.67
2018-09-29T19:23:45.944Z,4.30
2018-09-29T19:26:14.085Z,3.20
2018-09-29T19:28:42.241Z,7.40
2018-09-29T19:31:10.374Z,8.23
2018-09-29T19:33:38.520Z,6.30
2018-09-29T19:36:06.799Z,5.87
2018-09-29T19:38:35.098Z,9.43
2018-09-29T19:41:03.194Z,7.77
2018-09-29T19:43:31.319Z,6.73
2018-09-29T19:45:59.446Z,5.47
2018-09-29T19:48:27.558Z,4.47
2018-09-29T19:50:55.694Z,5.40
2018-09-29T19:53:23.811Z,4.27
2018-09-29T19:55:52.036Z,8.63
2018-09-29T19:58:20.156Z,8.13
2018-09-29T20:00:48.314Z,5.30
2018-09-29T20:03:16.412Z,5.90
2018-09-29T20:05:44.517Z,8.33
2018-09-29T20:08:12.627Z,6.07
2018-09-29T20:10:40.719Z,7.50
2018-09-29T20:13:09.000Z,4.73
2018-09-29T20:15:37.086Z,8.63
2018-09-29T20:18:05.172Z,5.00
2018-09-29T20:20:33.255Z,6.83
2018-09-29T20:23:01.414Z,8.03
2018-09-29T20:25:29.600Z,4.67
2018-09-29T20:27:57.750Z,6.73
2018-09-29T20:30:25.904Z,3.77
2018-09-29T20:32:53.966Z,7.75
2018-09-29T20:35:22.047Z,6.50
2018-09-29T20:37:50.129Z,3.50
2018-09-29T20:40:18.260Z,3.53
2018-09-29T20:42:46.349Z,4.17
2018-09-29T20:45:14.461Z,4.10
2018-09-29T20:47:42.626Z,4.37
2018-09-29T20:50:10.726Z,5.63
2018-09-29T20:52:38.858Z,7.12
2018-09-29T20:55:06.971Z,8.58
2018-09-29T20:57:35.094Z,5.20
2018-09-29T21:00:03.208Z,7.55
2018-09-29T21:02:31.309Z,6.78
2018-09-29T21:04:59.432Z,6.80
2018-09-29T21:07:27.531Z,8.93
2018-09-29T21:09:55.693Z,6.37
2018-09-29T21:12:23.836Z,4.50
2018-09-29T21:14:51.922Z,7.50
2018-09-29T21:17:20.026Z,8.93
2018-09-29T21:19:48.114Z,5.63
2018-09-29T21:22:16.215Z,8.30
2018-09-29T21:24:44.316Z,11.80
2018-09-29T21:27:12.422Z,7.83
2018-09-29T21:29:40.495Z,5.67
2018-09-29T21:32:08.665Z,5.83
2018-09-29T21:34:36.737Z,3.37
2018-09-29T21:37:04.827Z,3.85
2018-09-29T21:39:32.924Z,4.35
2018-09-29T21:42:01.054Z,5.80
2018-09-29T21:44:29.193Z,4.40
2018-09-29T21:46:57.353Z,3.65
2018-09-29T21:49:25.808Z,6.42
2018-09-29T21:51:53.971Z,4.80
2018-09-29T21:54:22.096Z,10.43
2018-09-29T21:56:50.192Z,12.63
2018-09-29T21:59:18.283Z,5.42
2018-09-29T22:01:46.399Z,6.85
2018-09-29T22:04:14.469Z,4.47
2018-09-29T22:06:42.554Z,5.17
2018-09-29T22:09:11.146Z,6.65
2018-09-29T22:11:39.219Z,6.10
2018-09-29T22:14:07.348Z,4.33
2018-09-29T22:16:35.452Z,6.00
2018-09-29T22:19:03.557Z,3.58
2018-09-29T22:21:31.652Z,7.97
2018-09-29T22:23:59.761Z,4.62
2018-09-29T22:26:27.882Z,3.85
2018-09-29T22:28:56.024Z,4.67
2018-09-29T22:31:24.123Z,4.65
2018-09-29T22:33:52.231Z,4.62
2018-09-29T22:36:20.353Z,8.30
2018-09-29T22:38:48.460Z,4.87
2018-09-29T22:41:16.584Z,3.55
2018-09-29T22:43:44.686Z,4.97
2018-09-29T22:46:13.057Z,5.53
2018-09-29T22:48:41.180Z,7.47
2018-09-29T22:51:09.282Z,10.80
2018-09-29T22:53:37.391Z,5.70
2018-09-29T22:56:05.502Z,5.78
2018-09-29T22:58:33.642Z,4.33
2018-09-29T23:01:01.783Z,3.75
2018-09-29T23:03:29.932Z,3.37
2018-09-29T23:05:58.060Z,4.75
2018-09-29T23:08:26.216Z,4.87
2018-09-29T23:10:54.345Z,2.95
2018-09-29T23:13:22.479Z,5.47
2018-09-29T23:15:50.581Z,5.65
2018-09-29T23:18:18.695Z,9.60
2018-09-29T23:20:46.801Z,5.03
2018-09-29T23:23:14.924Z,3.60
2018-09-29T23:25:43.017Z,7.20
2018-09-29T23:28:11.129Z,6.10
2018-09-29T23:30:39.240Z,4.25
2018-09-29T23:33:07.365Z,2.30
2018-09-29T23:35:35.465Z,5.72
2018-09-29T23:38:03.573Z,6.05
2018-09-29T23:40:31.676Z,5.85
2018-09-29T23:42:59.798Z,6.03
2018-09-29T23:45:27.894Z,2.98
2018-09-29T23:47:56.003Z,2.65
2018-09-29T23:50:24.151Z,4.62
2018-09-29T23:52:52.253Z,5.75
2018-09-29T23:55:20.358Z,3.50
2018-09-29T23:57:48.468Z,4.45
